Aérodrome :
LOGIN :

S'inscrire | Disclaimer

   EN    FR    IT 

 










Légende :    VFR   VFR Marginal   IFR   IFR Intensif   IFR Très Intensif
Visi : 
Plafond : 
>= 8 km
>= 3000ft
5 à 8 km
1000 à 3000 ft
1500m à 5 km
500 à 1000 ft
800 à 1500m
200 à 500 ft
< 800m
< 200 ft
Symboles :   Orages  Brouillard  Fortes neiges  Fortes précipitations  Vent > 20 kt
SIGMETs :   Divers  Orages  Givrage  Turbulence  Onde Orograph.  Cendres Volcan.






- Altitude de l'aérodrome : 302 ft
- Code IATA : CGN


EDDK - Cologne Bonn

DERNIER METAR :
  • 040920Z AUTO 11004KT 070V160 9999 OVC012 01/M02 Q1017 NOSIG

METARs EXPIRÉS :
  • 040850Z AUTO 09005KT 050V140 9999 OVC013 01/M02 Q1017 NOSIG
  • 040820Z AUTO 10004KT 060V150 9999 OVC013 01/M02 Q1017 NOSIG
  • 040750Z AUTO 10006KT 060V140 9999 OVC013 00/M03 Q1016 NOSIG
  • 040720Z AUTO 13006KT 090V170 9999 OVC014 00/M03 Q1017 NOSIG
  • 040650Z AUTO 11006KT 050V150 9999 OVC014 01/M03 Q1016 NOSIG

TAF AMD TAF EDDK
Valide du 04 à 07h jusqu'au 05 à 12h UTC


040720Z 0407/0512 08006KT 9999 OVC013
BECMG 0409/0412 BKN025
BECMG 0500/0503 36005KT
BECMG 0501/0504 BKN012
TEMPO 0504/0509 4000 RA BKN007
PROB40
TEMPO 0507/0511 1200 SNRA BKN001
BECMG 0509/0512 30004KT 2500 -DZ BR BKN004



MET'MAP, la Météo Aéronautique d'un coup d'oeil ! - Copyright ORBIFLY Décembre 2007 - Disclaimer

ORBIFLY MET'MAP TEAM :

Programmation & Développement : Alexandra Zaïnal
Sur une idée originale de : Baudouin d'Aumeries
Soutien technique & logistique : Manuel Goepfert
Assistance : Marc-Olivier Méhu




SOURCES & CREDITS :

   NOAA